Time;durP1;ratioP1;P1;durP2;ratioP2;P2;SDS_P1;SDS_P2;PMS_P1;PMS_P2;Temp;Humidity;BMP_temperature;BMP_pressure;BME280_temperature;BME280_humidity;BME280_pressure;Samples;Min_cycle;Max_cycle;Signal;HPM_P1;HPM_P2
2021/01/01 00:01:46;;;;;;;22.00;13.98;;;204.90;2252.80;;;;;;5011701;28;20041;-66
2021/01/01 00:04:13;;;;;;;19.58;13.13;;;205.00;2252.80;;;;;;5010676;28;20018;-64
2021/01/01 00:06:44;;;;;;;16.98;12.13;;;204.90;2252.80;;;;;;5014140;28;20033;-64
2021/01/01 00:09:10;;;;;;;18.20;11.80;;;204.90;2252.80;;;;;;5014104;28;20018;-63
2021/01/01 00:11:36;;;;;;;16.70;11.70;;;204.80;2252.80;;;;;;5013903;28;20037;-65
2021/01/01 00:14:02;;;;;;;16.05;11.10;;;204.80;2252.80;;;;;;5014199;28;20084;-63
2021/01/01 00:16:28;;;;;;;15.43;10.32;;;204.80;2252.80;;;;;;5012714;28;20026;-66
2021/01/01 00:18:54;;;;;;;15.93;12.18;;;204.80;2252.80;;;;;;5013445;28;20030;-64
2021/01/01 00:21:20;;;;;;;19.10;13.23;;;180.10;2252.80;;;;;;5014121;28;20037;-68
2021/01/01 00:23:45;;;;;;;22.05;12.55;;;180.00;2252.80;;;;;;5015436;28;20092;-64
2021/01/01 00:26:15;;;;;;;25.75;16.42;;;180.00;2252.80;;;;;;5015358;28;20123;-65
2021/01/01 00:28:46;;;;;;;21.67;13.27;;;180.10;2252.80;;;;;;5014236;28;20041;-64
2021/01/01 00:31:20;;;;;;;12.88;9.93;;;180.10;2252.80;;;;;;5010895;28;20017;-67
2021/01/01 00:33:47;;;;;;;13.30;9.35;;;204.80;2252.80;;;;;;5018228;28;20026;-65
2021/01/01 00:36:14;;;;;;;17.45;12.65;;;204.80;2252.80;;;;;;5018637;28;20403;-66
2021/01/01 00:38:46;;;;;;;15.75;10.73;;;204.90;2252.80;;;;;;5018056;28;20167;-66
2021/01/01 00:41:13;;;;;;;15.32;11.05;;;205.00;2252.80;;;;;;5017510;28;20037;-64
2021/01/01 00:43:39;;;;;;;13.85;9.85;;;180.00;2252.80;;;;;;5018825;28;20022;-66
2021/01/01 00:46:06;;;;;;;13.38;9.90;;;180.00;2252.80;;;;;;5018631;28;20334;-64
2021/01/01 00:48:32;;;;;;;13.40;9.40;;;179.90;2252.80;;;;;;5017574;28;20427;-63
2021/01/01 00:50:57;;;;;;;22.35;13.57;;;179.90;2252.80;;;;;;5017804;28;20105;-63
2021/01/01 00:53:23;;;;;;;31.02;18.08;;;179.90;2252.80;;;;;;5018742;28;20362;-64
2021/01/01 00:55:49;;;;;;;12.77;9.10;;;180.00;2252.80;;;;;;5018372;28;20030;-64
2021/01/01 00:58:15;;;;;;;13.52;9.10;;;180.00;2252.80;;;;;;5018526;28;20022;-63
2021/01/01 01:00:40;;;;;;;12.80;9.48;;;180.00;2252.80;;;;;;5018406;28;20033;-64
2021/01/01 01:03:06;;;;;;;14.00;10.75;;;180.00;2252.80;;;;;;5018190;28;20072;-66
2021/01/01 01:05:32;;;;;;;13.43;9.25;;;180.00;2252.80;;;;;;5018461;28;20025;-64
2021/01/01 01:07:58;;;;;;;12.80;8.68;;;180.00;2252.80;;;;;;5018638;28;20370;-64
2021/01/01 01:10:23;;;;;;;14.27;9.45;;;180.00;2252.80;;;;;;5018358;28;20033;-66
2021/01/01 01:12:49;;;;;;;17.73;11.73;;;180.00;2252.80;;;;;;5018002;28;20030;-65
2021/01/01 01:15:15;;;;;;;14.23;10.05;;;180.00;2252.80;;;;;;5018233;28;20030;-65
2021/01/01 01:17:41;;;;;;;14.48;10.27;;;180.00;2252.80;;;;;;5017911;28;20018;-66
2021/01/01 01:20:08;;;;;;;14.07;9.75;;;180.10;2252.80;;;;;;5017781;28;20057;-64
2021/01/01 01:22:34;;;;;;;12.75;8.93;;;204.80;2252.80;;;;;;5018096;28;20026;-65
2021/01/01 01:25:00;;;;;;;14.70;10.40;;;180.10;2252.80;;;;;;5018113;28;20095;-64
2021/01/01 01:27:26;;;;;;;12.75;9.23;;;204.80;2252.80;;;;;;5018343;28;20030;-64
2021/01/01 01:29:52;;;;;;;16.08;11.88;;;180.10;2252.80;;;;;;5017741;28;20065;-66
2021/01/01 01:32:18;;;;;;;15.75;11.65;;;204.80;2252.80;;;;;;5018269;28;20037;-63
2021/01/01 01:34:44;;;;;;;21.20;15.48;;;204.80;2252.80;;;;;;5017435;28;20462;-64
2021/01/01 01:37:09;;;;;;;24.33;18.17;;;204.80;2252.80;;;;;;5017651;28;20057;-67
2021/01/01 01:39:35;;;;;;;27.30;18.08;;;204.80;2252.80;;;;;;5018168;28;20105;-64
2021/01/01 01:42:01;;;;;;;163.52;77.03;;;204.90;2252.80;;;;;;5017774;28;20041;-64
2021/01/01 01:44:27;;;;;;;38.67;22.02;;;204.90;2252.80;;;;;;5017211;28;20437;-66
2021/01/01 01:46:53;;;;;;;15.52;11.00;;;180.10;2252.80;;;;;;5017406;28;20046;-67
2021/01/01 01:49:20;;;;;;;16.40;11.52;;;204.80;2252.80;;;;;;5018003;28;20419;-63
2021/01/01 01:51:48;;;;;;;17.55;11.82;;;179.90;2252.80;;;;;;5017412;28;20530;-64
2021/01/01 01:54:18;;;;;;;18.95;12.95;;;179.70;2252.80;;;;;;5017724;28;20028;-63
2021/01/01 01:56:45;;;;;;;15.40;10.60;;;179.70;2252.80;;;;;;5017580;28;20037;-64
2021/01/01 01:59:14;;;;;;;11.73;9.07;;;179.70;2252.80;;;;;;5017612;28;20108;-65
2021/01/01 02:01:41;;;;;;;13.82;9.43;;;179.80;2252.80;;;;;;5016640;28;20034;-64
2021/01/01 02:04:06;;;;;;;13.57;9.65;;;179.80;2252.80;;;;;;5017826;28;20025;-65
2021/01/01 02:06:33;;;;;;;12.52;9.50;;;179.80;2252.80;;;;;;5016924;28;20033;-64
2021/01/01 02:08:59;;;;;;;14.32;10.13;;;179.80;2252.80;;;;;;5017447;28;20029;-65
2021/01/01 02:11:25;;;;;;;13.43;10.60;;;179.80;2252.80;;;;;;5017194;28;20030;-64
2021/01/01 02:13:54;;;;;;;21.98;13.68;;;180.00;2252.80;;;;;;5017416;28;20022;-65
2021/01/01 02:16:21;;;;;;;18.70;12.70;;;180.00;2252.80;;;;;;5017409;28;20030;-64
2021/01/01 02:18:47;;;;;;;18.17;12.63;;;180.00;2252.80;;;;;;5017423;28;20053;-64
2021/01/01 02:21:16;;;;;;;16.90;12.10;;;204.80;2252.80;;;;;;5017315;28;20065;-63
2021/01/01 02:23:43;;;;;;;15.13;11.38;;;180.10;2252.80;;;;;;5017668;28;20430;-63
2021/01/01 02:26:08;;;;;;;17.98;10.95;;;180.10;2252.80;;;;;;5016504;28;20461;-63
2021/01/01 02:28:34;;;;;;;13.80;10.45;;;204.80;2252.80;;;;;;5017280;28;20049;-63
2021/01/01 02:31:00;;;;;;;17.23;11.52;;;204.90;2252.80;;;;;;5017598;28;20108;-63
2021/01/01 02:33:26;;;;;;;19.80;11.68;;;180.10;2252.80;;;;;;5017276;28;20056;-65
2021/01/01 02:35:52;;;;;;;14.68;9.95;;;180.00;2252.80;;;;;;5017219;28;20412;-65
2021/01/01 02:38:18;;;;;;;13.85;9.40;;;180.00;2252.80;;;;;;5017221;28;20053;-65
2021/01/01 02:40:44;;;;;;;21.77;12.93;;;179.80;2252.80;;;;;;5017175;28;20327;-64
2021/01/01 02:43:10;;;;;;;14.52;10.88;;;179.60;2252.80;;;;;;5017138;28;20030;-65
2021/01/01 02:45:35;;;;;;;13.85;10.02;;;179.80;2252.80;;;;;;5017391;28;20030;-63
2021/01/01 02:48:16;;;;;;;13.10;9.93;;;179.50;2252.80;;;;;;5017167;28;20025;-64
2021/01/01 02:50:43;;;;;;;15.00;10.93;;;179.60;2252.80;;;;;;5017383;28;20040;-65
2021/01/01 02:53:09;;;;;;;19.48;12.63;;;179.40;2252.80;;;;;;5017140;28;20052;-64
2021/01/01 02:55:35;;;;;;;16.17;11.77;;;154.50;2252.80;;;;;;5017050;28;20026;-64
2021/01/01 02:58:01;;;;;;;20.13;13.18;;;154.40;2252.80;;;;;;5017052;28;20025;-65
2021/01/01 03:00:28;;;;;;;18.15;12.60;;;154.30;2252.80;;;;;;5016990;28;20179;-65
2021/01/01 03:02:55;;;;;;;20.30;12.68;;;154.30;2252.80;;;;;;5016707;28;20022;-65
2021/01/01 03:05:21;;;;;;;16.60;11.77;;;154.20;2252.80;;;;;;5017267;28;20026;-65
2021/01/01 03:07:47;;;;;;;17.58;12.20;;;154.20;2252.80;;;;;;5016905;28;20399;-63
2021/01/01 03:10:13;;;;;;;16.88;11.52;;;154.10;2252.80;;;;;;5016609;28;20033;-63
2021/01/01 03:12:39;;;;;;;18.75;13.45;;;154.10;2252.80;;;;;;5017813;28;20460;-65
2021/01/01 03:15:06;;;;;;;24.75;14.50;;;154.00;2252.80;;;;;;5020246;28;20050;-64
2021/01/01 03:17:33;;;;;;;26.13;14.95;;;153.80;2252.80;;;;;;5020137;28;20407;-65
2021/01/01 03:19:59;;;;;;;26.23;16.92;;;153.80;2252.80;;;;;;5020082;28;20040;-64
2021/01/01 03:22:25;;;;;;;26.15;15.75;;;153.90;2252.80;;;;;;5019717;28;20037;-65
2021/01/01 03:24:50;;;;;;;22.85;14.93;;;153.80;2252.80;;;;;;5020594;28;20030;-63
2021/01/01 03:27:16;;;;;;;27.50;17.80;;;153.70;2252.80;;;;;;5017806;28;20050;-64
2021/01/01 03:29:42;;;;;;;26.25;15.48;;;153.60;2252.80;;;;;;5020008;28;20430;-64
2021/01/01 03:32:08;;;;;;;23.42;15.32;;;153.70;2252.80;;;;;;5020142;28;20037;-64
2021/01/01 03:34:34;;;;;;;21.38;15.02;;;153.70;2252.80;;;;;;5019904;28;20052;-63
2021/01/01 03:37:00;;;;;;;24.90;15.23;;;128.90;2252.80;;;;;;5018894;28;20433;-65
2021/01/01 03:39:26;;;;;;;22.67;14.88;;;128.70;2252.80;;;;;;5018117;28;20057;-64
2021/01/01 03:41:52;;;;;;;24.20;15.85;;;128.60;2252.80;;;;;;5019941;28;20042;-64
2021/01/01 03:44:17;;;;;;;24.70;16.75;;;128.50;2252.80;;;;;;5019726;28;20394;-64
2021/01/01 03:46:43;;;;;;;21.52;14.43;;;128.40;2252.80;;;;;;5019643;28;20026;-64
2021/01/01 03:49:09;;;;;;;22.73;14.55;;;128.40;2252.80;;;;;;5019916;28;20370;-62
2021/01/01 03:51:35;;;;;;;22.42;14.00;;;128.50;2252.80;;;;;;5019579;28;20041;-65
2021/01/01 03:54:00;;;;;;;20.95;13.68;;;128.70;2252.80;;;;;;5019811;28;20125;-64
2021/01/01 03:56:26;;;;;;;22.15;13.55;;;128.70;2252.80;;;;;;5019184;28;20030;-64
2021/01/01 03:58:52;;;;;;;15.30;10.35;;;128.70;2252.80;;;;;;5019675;28;20025;-63
2021/01/01 04:01:18;;;;;;;15.48;10.55;;;128.80;2252.80;;;;;;5019816;28;20335;-63
2021/01/01 04:03:44;;;;;;;12.60;8.68;;;128.60;2252.80;;;;;;5019647;28;20030;-64
2021/01/01 04:06:10;;;;;;;17.35;11.15;;;128.40;2252.80;;;;;;5019414;28;20084;-66
2021/01/01 04:08:36;;;;;;;18.92;11.95;;;128.20;2252.80;;;;;;5019702;28;20033;-65
2021/01/01 04:11:02;;;;;;;19.52;12.75;;;128.20;2252.80;;;;;;5019501;28;20108;-66
2021/01/01 04:13:28;;;;;;;18.80;10.82;;;128.20;2252.80;;;;;;5019670;28;20475;-64
2021/01/01 04:15:54;;;;;;;18.75;10.57;;;128.20;2252.80;;;;;;5019374;28;20107;-66
2021/01/01 04:18:19;;;;;;;15.32;10.00;;;128.20;2252.80;;;;;;5019034;28;20442;-65
2021/01/01 04:20:45;;;;;;;15.40;10.00;;;128.30;2252.80;;;;;;5019467;28;20124;-65
2021/01/01 04:23:11;;;;;;;14.52;8.63;;;128.30;2252.80;;;;;;5019520;28;20184;-65
2021/01/01 04:25:37;;;;;;;16.77;9.15;;;128.30;2252.80;;;;;;5018378;28;20022;-64
2021/01/01 04:28:03;;;;;;;13.18;8.43;;;128.10;2252.80;;;;;;5019415;28;20457;-66
2021/01/01 04:30:28;;;;;;;12.27;8.45;;;103.30;2227.20;;;;;;5019045;28;20312;-63
2021/01/01 04:32:54;;;;;;;11.68;8.77;;;103.20;2227.20;;;;;;5018543;28;20102;-65
2021/01/01 04:35:20;;;;;;;13.65;9.45;;;103.20;2227.20;;;;;;5018739;28;20026;-65
2021/01/01 04:37:46;;;;;;;15.95;9.95;;;103.10;2227.20;;;;;;5018918;28;20371;-65
2021/01/01 04:40:12;;;;;;;14.32;9.13;;;103.10;2227.20;;;;;;5018758;28;20104;-65
2021/01/01 04:42:38;;;;;;;11.25;7.93;;;103.00;2227.20;;;;;;5019119;28;20057;-64
2021/01/01 04:45:06;;;;;;;14.10;7.82;;;103.00;2227.20;;;;;;5019103;28;20017;-64
2021/01/01 04:47:34;;;;;;;11.75;8.07;;;103.00;2227.20;;;;;;5018694;28;20056;-65
2021/01/01 04:50:01;;;;;;;17.45;9.25;;;103.10;2227.20;;;;;;5018980;28;20403;-64
2021/01/01 04:52:32;;;;;;;14.88;9.07;;;103.10;2227.20;;;;;;5018371;28;20089;-67
2021/01/01 04:55:01;;;;;;;13.25;8.05;;;103.20;2227.20;;;;;;5018406;28;20308;-65
2021/01/01 04:57:28;;;;;;;13.73;8.40;;;103.30;2227.20;;;;;;5018296;28;20425;-66
2021/01/01 04:59:54;;;;;;;18.35;9.38;;;128.00;2252.80;;;;;;5018323;28;20075;-64
2021/01/01 05:02:20;;;;;;;14.82;9.10;;;103.20;2227.20;;;;;;5018454;28;20125;-66
2021/01/01 05:04:47;;;;;;;17.50;8.70;;;128.00;2252.80;;;;;;5018735;28;20090;-66
2021/01/01 05:07:20;;;;;;;13.45;9.00;;;103.30;2227.20;;;;;;5018157;28;20026;-65
2021/01/01 05:09:48;;;;;;;15.20;9.60;;;103.30;2227.20;;;;;;5018966;28;20030;-65
2021/01/01 05:12:15;;;;;;;18.92;14.48;;;103.20;2227.20;;;;;;5018113;28;20025;-66
2021/01/01 05:14:41;;;;;;;17.85;10.82;;;103.10;2227.20;;;;;;5018074;28;20026;-66
2021/01/01 05:17:08;;;;;;;16.17;9.30;;;103.10;2227.20;;;;;;5017723;28;20022;-63
2021/01/01 05:19:36;;;;;;;20.02;11.82;;;102.80;2227.20;;;;;;5018221;28;20080;-63
2021/01/01 05:22:12;;;;;;;24.30;15.20;;;103.00;2227.20;;;;;;5018125;28;20334;-65
2021/01/01 05:24:42;;;;;;;17.38;11.50;;;102.80;2227.20;;;;;;5018314;28;20548;-64
2021/01/01 05:27:12;;;;;;;15.32;9.70;;;102.80;2227.20;;;;;;5018108;28;20061;-65
2021/01/01 05:29:53;;;;;;;15.68;10.95;;;102.80;2227.20;;;;;;5017827;28;20053;-64
2021/01/01 05:32:28;;;;;;;17.30;9.75;;;102.60;2227.20;;;;;;5018317;28;20315;-64
2021/01/01 05:34:55;;;;;;;12.50;8.73;;;102.60;2227.20;;;;;;5017488;28;20025;-63
2021/01/01 05:37:34;;;;;;;14.70;9.30;;;102.60;2227.20;;;;;;5017845;28;20486;-66
2021/01/01 05:40:07;;;;;;;14.02;8.63;;;102.50;2227.20;;;;;;5018269;28;20077;-64
2021/01/01 05:42:35;;;;;;;13.32;8.43;;;102.40;2227.20;;;;;;5016341;28;20045;-66
2021/01/01 05:45:32;;;;;;;12.65;8.10;;;77.70;2227.20;;;;;;5018107;28;20029;-65
2021/01/01 05:48:06;;;;;;;13.97;9.47;;;77.70;2227.20;;;;;;4996046;28;20403;-64
2021/01/01 05:50:36;;;;;;;15.50;8.60;;;77.70;2227.20;;;;;;4996044;28;20083;-66
2021/01/01 05:53:18;;;;;;;12.68;8.43;;;102.40;2227.20;;;;;;4996045;28;20195;-65
2021/01/01 05:55:47;;;;;;;13.85;8.80;;;102.40;2227.20;;;;;;4995760;28;20034;-63
2021/01/01 05:58:24;;;;;;;15.82;9.73;;;102.40;2227.20;;;;;;4995992;28;20363;-64
2021/01/01 06:00:56;;;;;;;11.82;8.25;;;102.40;2227.20;;;;;;4995874;28;20057;-63
2021/01/01 06:03:24;;;;;;;14.13;8.73;;;102.40;2227.20;;;;;;4995661;28;20093;-65
2021/01/01 06:05:57;;;;;;;15.23;8.75;;;77.70;2227.20;;;;;;4995893;28;20447;-65
2021/01/01 06:08:25;;;;;;;14.88;8.95;;;102.40;2227.20;;;;;;4995890;28;20034;-63
2021/01/01 06:10:52;;;;;;;14.05;8.48;;;77.70;2227.20;;;;;;4995571;28;20046;-66
2021/01/01 06:13:20;;;;;;;13.30;8.45;;;102.40;2227.20;;;;;;4995264;28;20368;-64
2021/01/01 06:15:57;;;;;;;15.27;9.43;;;77.60;2227.20;;;;;;4995584;28;20126;-64
2021/01/01 06:18:33;;;;;;;16.23;10.10;;;77.60;2227.20;;;;;;4995289;28;20042;-64
2021/01/01 06:21:04;;;;;;;15.63;9.07;;;77.60;2227.20;;;;;;4995681;28;20042;-63
2021/01/01 06:23:35;;;;;;;17.42;9.77;;;77.60;2227.20;;;;;;5005707;28;20427;-63
2021/01/01 06:26:03;;;;;;;15.75;9.00;;;77.60;2227.20;;;;;;5017619;28;20022;-65
2021/01/01 06:28:30;;;;;;;13.55;9.35;;;77.60;2227.20;;;;;;5017609;28;20029;-64
2021/01/01 06:30:59;;;;;;;25.92;14.57;;;77.50;2227.20;;;;;;5017315;28;20033;-65
2021/01/01 06:33:25;;;;;;;18.90;10.77;;;77.50;2227.20;;;;;;5017579;28;20323;-64
2021/01/01 06:35:52;;;;;;;19.85;10.18;;;77.50;2227.20;;;;;;5017266;28;20026;-66
2021/01/01 06:38:37;;;;;;;46.00;22.40;;;77.60;2227.20;;;;;;5016448;28;20172;-65
2021/01/01 06:41:46;;;;;;;107.85;54.10;;;77.60;2227.20;;;;;;5016536;28;20332;-66
2021/01/01 06:44:32;;;;;;;88.05;38.80;;;77.60;2227.20;;;;;;5017026;28;20465;-65
2021/01/01 06:46:59;;;;;;;65.20;34.42;;;77.70;2227.20;;;;;;5016750;28;20407;-64
2021/01/01 06:49:35;;;;;;;139.07;76.38;;;77.60;2227.20;;;;;;5020822;28;20025;-64
2021/01/01 06:52:15;;;;;;;151.25;96.57;;;77.70;2227.20;;;;;;5020206;28;20112;-65
2021/01/01 06:55:01;;;;;;;41.70;29.00;;;102.40;2227.20;;;;;;5019661;28;20331;-63
2021/01/01 06:57:29;;;;;;;15.98;11.00;;;102.50;2227.20;;;;;;5020834;28;20034;-64
2021/01/01 06:59:56;;;;;;;22.88;15.98;;;102.50;2227.20;;;;;;5020565;28;20510;-64
2021/01/01 07:02:27;;;;;;;61.65;47.78;;;102.50;2227.20;;;;;;5020390;28;20030;-64
2021/01/01 07:04:53;;;;;;;29.27;18.75;;;102.60;2227.20;;;;;;5020644;28;20077;-66
2021/01/01 07:07:44;;;;;;;19.25;10.57;;;102.70;2227.20;;;;;;5019797;28;20441;-65
2021/01/01 07:10:34;;;;;;;24.05;15.88;;;102.80;2227.20;;;;;;5020437;28;20032;-66
2021/01/01 07:13:18;;;;;;;26.35;17.55;;;102.80;2227.20;;;;;;5020396;28;20030;-66
2021/01/01 07:15:44;;;;;;;65.25;38.38;;;102.80;2227.20;;;;;;5020458;28;20033;-67
2021/01/01 07:18:10;;;;;;;38.13;24.95;;;102.90;2227.20;;;;;;5019458;28;20370;-65
2021/01/01 07:20:40;;;;;;;29.08;22.05;;;103.00;2227.20;;;;;;5020129;28;20026;-63
2021/01/01 07:23:06;;;;;;;16.15;10.90;;;103.10;2227.20;;;;;;5020385;28;20025;-64
2021/01/01 07:25:36;;;;;;;22.40;16.15;;;103.20;2227.20;;;;;;5019847;28;20339;-64
2021/01/01 07:28:04;;;;;;;22.45;13.85;;;103.10;2227.20;;;;;;5020313;28;20435;-65
2021/01/01 07:30:32;;;;;;;19.33;12.02;;;103.20;2227.20;;;;;;5020239;28;20030;-64
2021/01/01 07:32:58;;;;;;;20.58;13.60;;;128.00;2252.80;;;;;;5020475;28;20029;-65
2021/01/01 07:35:24;;;;;;;18.27;10.48;;;128.10;2252.80;;;;;;5019607;28;20082;-64
2021/01/01 07:37:52;;;;;;;15.85;10.63;;;128.30;2252.80;;;;;;5020078;28;20101;-64
2021/01/01 07:40:18;;;;;;;19.45;12.60;;;128.40;2252.80;;;;;;5020005;28;20111;-65
2021/01/01 07:42:52;;;;;;;19.02;12.02;;;128.20;2252.80;;;;;;5019733;28;20116;-64
2021/01/01 07:45:18;;;;;;;19.98;11.05;;;128.10;2252.80;;;;;;5020008;28;20041;-64
2021/01/01 07:47:45;;;;;;;17.88;11.27;;;128.00;2252.80;;;;;;5019598;28;20068;-65
2021/01/01 07:50:18;;;;;;;16.38;11.13;;;128.00;2252.80;;;;;;5020148;28;20112;-64
2021/01/01 07:52:45;;;;;;;18.42;13.02;;;128.00;2252.80;;;;;;5019350;28;20018;-65
2021/01/01 07:55:13;;;;;;;22.52;13.88;;;128.10;2252.80;;;;;;5019532;28;20026;-64
2021/01/01 07:57:39;;;;;;;20.60;13.05;;;128.20;2252.80;;;;;;5019751;28;20022;-63
2021/01/01 08:00:09;;;;;;;18.13;11.57;;;128.40;2252.80;;;;;;5018122;28;20034;-66
2021/01/01 08:02:35;;;;;;;20.25;12.25;;;128.50;2252.80;;;;;;5019294;28;20037;-65
2021/01/01 08:05:03;;;;;;;23.25;15.70;;;128.40;2252.80;;;;;;5019892;28;20030;-66
2021/01/01 08:07:29;;;;;;;26.60;15.02;;;128.50;2252.80;;;;;;5019478;28;20022;-65
2021/01/01 08:09:55;;;;;;;26.67;14.82;;;128.40;2252.80;;;;;;5019405;28;20108;-65
2021/01/01 08:12:21;;;;;;;27.00;16.33;;;128.60;2252.80;;;;;;5019720;28;20026;-63
2021/01/01 08:14:51;;;;;;;34.83;20.15;;;128.90;2252.80;;;;;;5019438;28;20030;-65
2021/01/01 08:17:22;;;;;;;26.98;17.73;;;153.60;2252.80;;;;;;5018843;28;20327;-64
2021/01/01 08:19:49;;;;;;;19.65;13.48;;;153.80;2252.80;;;;;;5018806;28;20380;-65
2021/01/01 08:22:27;;;;;;;25.63;14.13;;;153.80;2252.80;;;;;;5018896;28;20029;-65
2021/01/01 08:24:55;;;;;;;20.25;13.85;;;153.90;2252.80;;;;;;5019618;28;20029;-64
2021/01/01 08:27:24;;;;;;;24.75;13.77;;;153.90;2252.80;;;;;;5019074;28;20030;-65
2021/01/01 08:29:51;;;;;;;38.88;15.23;;;153.80;2252.80;;;;;;5019143;28;20026;-65
2021/01/01 08:32:19;;;;;;;41.30;16.10;;;153.80;2252.80;;;;;;5019113;28;20041;-64
2021/01/01 08:34:51;;;;;;;49.85;20.00;;;153.80;2252.80;;;;;;5018882;28;20033;-64
2021/01/01 08:37:22;;;;;;;142.32;65.85;;;153.80;2252.80;;;;;;5018445;28;20029;-65
2021/01/01 08:39:59;;;;;;;93.18;39.45;;;153.70;2252.80;;;;;;5018120;28;20463;-65
2021/01/01 08:42:25;;;;;;;41.80;23.23;;;128.90;2252.80;;;;;;5016601;28;20034;-63
2021/01/01 08:44:57;;;;;;;169.35;77.85;;;128.90;2252.80;;;;;;5015786;28;20048;-64
2021/01/01 08:47:45;;;;;;;74.18;40.45;;;153.70;2252.80;;;;;;5017388;28;20033;-64
2021/01/01 08:50:25;;;;;;;33.67;18.17;;;153.80;2252.80;;;;;;5017368;28;20049;-62
2021/01/01 08:53:00;;;;;;;32.97;16.95;;;153.70;2252.80;;;;;;5017140;28;20429;-65
2021/01/01 08:55:27;;;;;;;38.45;19.52;;;153.80;2252.80;;;;;;5016692;28;20045;-63
2021/01/01 08:58:16;;;;;;;37.60;16.88;;;153.90;2252.80;;;;;;5017148;28;20056;-65
2021/01/01 09:00:44;;;;;;;29.13;16.63;;;154.20;2252.80;;;;;;5018009;28;20026;-66
2021/01/01 09:03:15;;;;;;;42.73;18.70;;;154.10;2252.80;;;;;;5018267;28;20034;-64
2021/01/01 09:05:41;;;;;;;32.60;16.00;;;154.30;2252.80;;;;;;5018044;28;20025;-66
2021/01/01 09:08:15;;;;;;;32.88;16.50;;;154.20;2252.80;;;;;;5018442;28;20026;-64
2021/01/01 09:10:43;;;;;;;34.05;17.17;;;154.20;2252.80;;;;;;5018309;28;20022;-64
2021/01/01 09:13:12;;;;;;;47.00;22.07;;;154.20;2252.80;;;;;;5018356;28;20029;-64
2021/01/01 09:15:38;;;;;;;36.65;18.02;;;154.50;2252.80;;;;;;5018654;28;20030;-63
2021/01/01 09:18:07;;;;;;;37.50;17.45;;;179.20;2252.80;;;;;;5018141;28;20049;-63
2021/01/01 09:20:35;;;;;;;36.25;19.70;;;179.20;2252.80;;;;;;5017622;28;20454;-66
2021/01/01 09:23:01;;;;;;;36.83;20.00;;;179.20;2252.80;;;;;;5018108;28;20029;-63
2021/01/01 09:25:29;;;;;;;70.38;35.80;;;179.30;2252.80;;;;;;5017805;28;20400;-63
2021/01/01 09:27:56;;;;;;;47.10;20.25;;;179.30;2252.80;;;;;;5017603;28;20474;-65
2021/01/01 09:30:32;;;;;;;30.38;17.42;;;179.30;2252.80;;;;;;5018026;28;20034;-65
2021/01/01 09:33:02;;;;;;;56.90;28.98;;;179.30;2252.80;;;;;;5012955;28;20045;-64
2021/01/01 09:35:30;;;;;;;37.85;17.00;;;179.50;2252.80;;;;;;5015386;28;20335;-64
2021/01/01 09:38:01;;;;;;;26.00;16.48;;;179.50;2252.80;;;;;;5016685;28;20026;-64
2021/01/01 09:40:30;;;;;;;25.73;16.10;;;179.60;2252.80;;;;;;5016766;28;20025;-64
2021/01/01 09:43:00;;;;;;;33.03;15.35;;;179.60;2252.80;;;;;;5016547;28;20313;-65
2021/01/01 09:45:25;;;;;;;34.33;16.38;;;179.70;2252.80;;;;;;5016890;28;20320;-65
2021/01/01 09:47:51;;;;;;;29.25;15.10;;;179.80;2252.80;;;;;;5017040;28;20029;-65
2021/01/01 09:50:17;;;;;;;24.15;13.90;;;179.90;2252.80;;;;;;5015953;28;20026;-63
2021/01/01 09:52:43;;;;;;;27.67;13.98;;;179.70;2252.80;;;;;;5017380;28;20482;-64
2021/01/01 09:55:09;;;;;;;27.75;16.08;;;179.80;2252.80;;;;;;5016329;28;20034;-64
2021/01/01 09:57:40;;;;;;;33.63;16.30;;;179.90;2252.80;;;;;;5016911;28;20033;-66
2021/01/01 10:00:11;;;;;;;28.10;14.77;;;180.10;2252.80;;;;;;5016666;28;20413;-64
2021/01/01 10:02:37;;;;;;;29.77;14.65;;;180.10;2252.80;;;;;;5015765;28;20493;-66
2021/01/01 10:05:04;;;;;;;30.95;15.38;;;180.10;2252.80;;;;;;5016973;28;20030;-63
2021/01/01 10:07:30;;;;;;;28.38;15.65;;;180.10;2252.80;;;;;;5017171;28;20383;-63
2021/01/01 10:09:59;;;;;;;30.70;13.18;;;180.00;2252.80;;;;;;5011796;28;20052;-65
2021/01/01 10:12:25;;;;;;;;;;;204.80;2252.80;;;;;;5016225;28;20100;-67
2021/01/01 10:14:54;;;;;;;23.55;13.32;;;204.90;2252.80;;;;;;5014594;28;20307;-62
2021/01/01 10:17:21;;;;;;;;;;;205.00;2227.20;;;;;;5016455;28;20370;-64
2021/01/01 10:19:47;;;;;;;20.05;12.07;;;205.10;2227.20;;;;;;5015356;28;19913;-64
2021/01/01 10:22:12;;;;;;;23.95;13.13;;;205.30;2227.20;;;;;;5016945;28;20077;-63
2021/01/01 10:24:38;;;;;;;21.90;11.90;;;205.40;2201.60;;;;;;5019451;28;20030;-63
2021/01/01 10:27:04;;;;;;;23.58;12.23;;;205.40;2201.60;;;;;;5009329;28;20029;-64
2021/01/01 10:29:30;;;;;;;22.52;12.20;;;205.40;2150.40;;;;;;5000405;28;20025;-63
2021/01/01 10:32:02;;;;;;;18.27;11.15;;;205.50;2124.80;;;;;;4999821;28;20027;-63
2021/01/01 10:34:28;;;;;;;18.00;11.27;;;205.50;2124.80;;;;;;5000850;28;20062;-62
2021/01/01 10:36:54;;;;;;;17.25;9.32;;;205.60;2150.40;;;;;;4998499;28;20057;-63
2021/01/01 10:39:20;;;;;;;18.98;11.27;;;205.70;2073.60;;;;;;5000060;28;20055;-63
2021/01/01 10:41:48;;;;;;;39.20;18.00;;;205.70;2099.20;;;;;;5000341;28;20331;-63
2021/01/01 10:44:15;;;;;;;22.17;11.18;;;230.40;2073.60;;;;;;5016703;28;20327;-62
2021/01/01 10:46:41;;;;;;;25.45;10.95;;;230.50;2073.60;;;;;;5019663;28;20026;-65
2021/01/01 10:49:07;;;;;;;21.55;12.20;;;230.60;2073.60;;;;;;5019935;28;20377;-64
2021/01/01 10:51:33;;;;;;;23.98;11.85;;;231.00;2073.60;;;;;;5019998;28;20026;-65
2021/01/01 10:53:59;;;;;;;20.13;12.30;;;231.20;2022.40;;;;;;5020135;28;20033;-63
2021/01/01 10:56:27;;;;;;;25.23;12.10;;;231.20;1996.80;;;;;;5020635;28;20026;-63
2021/01/01 10:58:53;;;;;;;24.33;11.32;;;231.30;1971.20;;;;;;5020946;28;20022;-62
2021/01/01 11:01:22;;;;;;;21.92;9.25;;;231.30;1945.60;;;;;;5019892;28;20029;-64
2021/01/01 11:03:49;;;;;;;24.98;13.13;;;256.30;1894.40;;;;;;5019829;28;20037;-63
2021/01/01 11:06:16;;;;;;;20.88;10.90;;;256.50;1868.80;;;;;;5020427;28;20022;-64
2021/01/01 11:08:42;;;;;;;23.45;10.45;;;256.60;1868.80;;;;;;5020014;28;20036;-65
2021/01/01 11:11:12;;;;;;;18.15;10.15;;;256.70;1843.20;;;;;;5019917;28;20571;-64
2021/01/01 11:13:45;;;;;;;29.23;12.68;;;256.90;1843.20;;;;;;5020167;28;20084;-63
2021/01/01 12:25:28;;;;;;;8.82;5.75;;;461.00;1126.40;;;;;;5018017;28;20036;-64
2021/01/01 12:28:00;;;;;;;7.88;4.15;;;436.10;1049.60;;;;;;5005638;28;20030;-64
2021/01/01 12:30:27;;;;;;;9.60;5.60;;;461.10;1100.80;;;;;;5018243;28;20420;-64
2021/01/01 12:32:55;;;;;;;6.60;4.28;;;486.40;1024.00;;;;;;5006930;28;20029;-65
2021/01/01 12:35:25;;;;;;;7.05;3.88;;;486.50;998.40;;;;;;5017981;28;20022;-65
2021/01/01 12:38:03;;;;;;;5.82;3.40;;;486.80;1024.00;;;;;;5018223;28;20037;-64
2021/01/01 12:40:29;;;;;;;9.40;4.55;;;512.50;947.20;;;;;;5015336;28;20089;-65
2021/01/01 12:42:55;;;;;;;10.98;3.83;;;537.90;921.60;;;;;;5015423;28;20404;-64
2021/01/01 12:45:22;;;;;;;5.95;3.97;;;512.60;896.00;;;;;;5015868;28;20025;-65
2021/01/01 12:47:51;;;;;;;4.85;2.33;;;512.20;896.00;;;;;;5014947;28;20699;-65
2021/01/01 12:50:17;;;;;;;4.20;2.42;;;486.80;921.60;;;;;;5015654;28;20026;-67
2021/01/01 12:53:00;;;;;;;5.53;3.10;;;461.70;896.00;;;;;;5016433;28;20033;-65
2021/01/01 12:55:27;;;;;;;6.28;3.75;;;486.90;896.00;;;;;;5011852;28;20077;-66
2021/01/01 12:57:55;;;;;;;4.25;2.60;;;512.60;870.40;;;;;;5016650;28;20033;-63
2021/01/01 13:00:23;;;;;;;6.30;3.20;;;537.60;896.00;;;;;;5014141;28;20120;-63
2021/01/01 13:02:52;;;;;;;5.87;2.97;;;537.80;870.40;;;;;;5016696;28;20605;-64
2021/01/01 13:05:20;;;;;;;;;;;512.50;844.80;;;;;;5017161;28;20025;-64
2021/01/01 13:08:08;;;;;;;8.55;3.30;;;512.70;819.20;;;;;;5011938;28;19967;-63
2021/01/01 13:10:37;;;;;;;8.70;3.13;;;537.90;844.80;;;;;;5013685;28;20323;-63
2021/01/01 13:13:12;;;;;;;5.63;2.92;;;563.20;819.20;;;;;;5015369;28;20033;-63
2021/01/01 13:15:59;;;;;;;7.80;2.85;;;537.90;819.20;;;;;;5013398;28;20065;-62
2021/01/01 13:18:41;;;;;;;11.45;8.35;;;512.50;819.20;;;;;;5015749;28;20029;-64
2021/01/01 13:21:43;;;;;;;59.15;39.17;;;486.40;870.40;;;;;;5014924;28;20404;-63